createdAt,value
2023-04-15T00:02:17.182Z,5.70
2023-04-15T00:06:06.455Z,4.90
2023-04-15T00:09:56.193Z,5.80
2023-04-15T00:32:50.884Z,4.90
2023-04-15T00:36:34.831Z,5.60
2023-04-15T00:40:23.860Z,5.40
2023-04-15T00:44:05.813Z,5.10
2023-04-15T00:47:55.664Z,4.30
2023-04-15T01:03:36.249Z,4.90
2023-04-15T01:07:16.094Z,5.50
2023-04-15T01:11:06.090Z,5.90
2023-04-15T01:34:15.047Z,4.60
2023-04-15T01:38:04.016Z,5.40
2023-04-15T01:41:54.108Z,4.00
2023-04-15T01:45:43.935Z,5.00
2023-04-15T02:05:06.118Z,5.20
2023-04-15T02:08:38.043Z,5.10
2023-04-15T02:12:27.185Z,5.10
2023-04-15T02:16:16.291Z,4.80
2023-04-15T02:39:25.627Z,5.50
2023-04-15T02:43:14.138Z,5.30
2023-04-15T02:46:57.333Z,6.80
2023-04-15T02:50:46.480Z,6.90
2023-04-15T03:13:26.752Z,6.80
2023-04-15T03:17:15.839Z,7.20
2023-04-15T03:20:47.713Z,7.10
2023-04-15T03:24:30.529Z,7.10
2023-04-15T03:51:15.290Z,7.00
2023-04-15T03:55:04.220Z,7.00
2023-04-15T04:14:05.164Z,6.60
2023-04-15T04:17:54.033Z,5.80
2023-04-15T04:21:44.995Z,5.50
2023-04-15T04:48:14.115Z,5.80
2023-04-15T04:51:48.957Z,7.10
2023-04-15T04:55:37.728Z,5.60
2023-04-15T04:59:26.572Z,6.40
2023-04-15T05:27:59.524Z,6.90
2023-04-15T05:30:40.367Z,6.10
2023-04-15T05:33:16.468Z,7.40
2023-04-15T05:36:02.054Z,6.50
2023-04-15T05:38:42.665Z,7.30
2023-04-15T05:41:43.214Z,7.80
2023-04-15T05:44:25.546Z,8.50
2023-04-15T05:47:13.783Z,7.50
2023-04-15T05:49:52.954Z,7.10
2023-04-15T05:52:39.873Z,6.70
2023-04-15T05:55:18.781Z,7.40
2023-04-15T05:58:09.324Z,8.60
2023-04-15T06:01:09.303Z,6.90
2023-04-15T06:03:50.862Z,7.50
2023-04-15T06:06:22.041Z,7.50
2023-04-15T06:09:29.425Z,7.00
2023-04-15T06:12:31.055Z,6.70
2023-04-15T06:15:38.686Z,7.30
2023-04-15T06:18:15.762Z,7.60
2023-04-15T06:20:59.096Z,8.30
2023-04-15T06:23:37.707Z,7.40
2023-04-15T06:26:14.790Z,8.50
2023-04-15T06:29:03.973Z,7.50
2023-04-15T06:31:38.414Z,8.50
2023-04-15T06:34:33.276Z,7.90
2023-04-15T06:37:09.436Z,8.10
2023-04-15T06:39:40.631Z,6.70
2023-04-15T06:42:12.382Z,7.00
2023-04-15T06:44:46.757Z,7.60
2023-04-15T06:47:18.481Z,7.10
2023-04-15T06:49:51.798Z,7.60
2023-04-15T06:52:29.356Z,8.20
2023-04-15T06:54:59.746Z,8.00
2023-04-15T06:57:35.091Z,6.80
2023-04-15T07:00:13.061Z,8.60
2023-04-15T07:02:51.173Z,6.80
2023-04-15T07:05:22.712Z,6.50
2023-04-15T07:07:57.278Z,7.10
2023-04-15T07:10:37.369Z,5.10
2023-04-15T07:13:07.282Z,6.70
2023-04-15T07:15:38.932Z,5.70
2023-04-15T07:18:14.802Z,6.90
2023-04-15T07:20:51.705Z,6.60
2023-04-15T07:23:20.254Z,6.20
2023-04-15T07:25:49.462Z,6.90
2023-04-15T07:28:18.026Z,6.70
2023-04-15T07:30:49.854Z,5.90
2023-04-15T07:33:21.851Z,6.00
2023-04-15T07:35:53.228Z,6.40
2023-04-15T07:38:26.390Z,5.40
2023-04-15T07:41:03.881Z,6.00
2023-04-15T07:43:38.833Z,5.20
2023-04-15T07:47:27.940Z,5.40
2023-04-15T07:51:16.843Z,6.10
2023-04-15T08:21:55.638Z,4.10
2023-04-15T08:25:44.859Z,3.00
2023-04-15T08:29:35.650Z,4.90
2023-04-15T08:45:07.711Z,4.10
2023-04-15T08:48:56.771Z,4.10
2023-04-15T08:52:46.252Z,3.80
2023-04-15T08:56:35.238Z,3.50
2023-04-15T09:19:36.469Z,3.40
2023-04-15T09:23:25.704Z,3.80
2023-04-15T09:27:16.182Z,4.00
2023-04-15T09:50:57.085Z,5.10
2023-04-15T09:54:45.918Z,3.60
2023-04-15T09:58:35.612Z,4.50
2023-04-15T10:14:15.467Z,4.60
2023-04-15T10:18:04.387Z,4.70
2023-04-15T10:21:35.842Z,6.40
2023-04-15T10:37:06.803Z,6.00
2023-04-15T10:40:46.653Z,4.90
2023-04-15T10:44:35.762Z,4.00
2023-04-15T10:48:25.029Z,3.70
2023-04-15T10:55:53.752Z,4.60
2023-04-15T11:26:31.167Z,4.60
2023-04-15T11:30:20.000Z,5.60
2023-04-15T11:33:47.362Z,4.50
2023-04-15T11:37:36.406Z,3.20
2023-04-15T11:45:51.558Z,5.00
2023-04-15T11:49:40.576Z,4.50
2023-04-15T11:53:38.925Z,4.30
2023-04-15T12:09:18.415Z,5.60
2023-04-15T12:13:07.484Z,5.90
2023-04-15T12:16:59.734Z,5.20
2023-04-15T12:20:51.635Z,5.40
2023-04-15T12:36:14.493Z,4.50
2023-04-15T12:40:06.738Z,4.70
2023-04-15T12:43:48.741Z,5.10
2023-04-15T12:47:37.866Z,5.60
2023-04-15T13:06:31.082Z,4.70
2023-04-15T13:10:20.148Z,6.30
2023-04-15T13:13:53.169Z,5.60
2023-04-15T13:17:13.640Z,5.10
2023-04-15T13:21:03.746Z,6.10
2023-04-15T13:24:42.951Z,6.90
2023-04-15T13:44:10.682Z,4.00
2023-04-15T13:47:59.819Z,4.30
2023-04-15T13:51:48.843Z,3.90
2023-04-15T14:13:20.763Z,4.30
2023-04-15T14:16:48.010Z,5.30
2023-04-15T14:20:37.258Z,5.20
2023-04-15T14:24:26.072Z,6.50
2023-04-15T14:28:15.073Z,6.60
2023-04-15T14:47:38.745Z,4.70
2023-04-15T14:51:27.916Z,4.70
2023-04-15T14:55:17.530Z,4.70
2023-04-15T15:07:01.484Z,9.50
2023-04-15T15:10:50.563Z,5.70
2023-04-15T15:14:00.734Z,6.50
2023-04-15T15:17:49.736Z,7.90
2023-04-15T15:21:34.966Z,6.00
2023-04-15T15:25:25.508Z,7.10
2023-04-15T15:45:01.125Z,5.00
2023-04-15T15:48:49.988Z,4.60
2023-04-15T15:52:38.946Z,4.80
2023-04-15T15:56:28.838Z,4.50
2023-04-15T16:03:58.785Z,4.10
2023-04-15T16:23:31.584Z,5.10
2023-04-15T16:27:20.718Z,6.50
2023-04-15T16:31:03.270Z,5.50
2023-04-15T16:34:44.054Z,6.60
2023-04-15T16:54:03.479Z,8.40
2023-04-15T16:58:02.085Z,8.40
2023-04-15T17:01:36.238Z,9.60
2023-04-15T17:17:15.306Z,7.10
2023-04-15T17:21:04.123Z,7.70
2023-04-15T17:36:42.405Z,9.60
2023-04-15T17:40:31.257Z,11.90
2023-04-15T17:44:20.239Z,11.20
2023-04-15T17:59:43.915Z,12.20
2023-04-15T18:03:33.321Z,11.30
2023-04-15T18:07:03.394Z,10.50
2023-04-15T18:26:26.661Z,11.20
2023-04-15T18:30:02.623Z,10.40
2023-04-15T18:33:51.699Z,10.50
2023-04-15T18:42:00.048Z,12.00
2023-04-15T18:50:08.503Z,12.40
2023-04-15T18:53:50.420Z,11.30
2023-04-15T18:57:39.352Z,11.50
2023-04-15T19:01:22.430Z,13.10
2023-04-15T19:05:10.910Z,12.20
2023-04-15T19:08:59.828Z,12.20
2023-04-15T19:12:50.019Z,15.70
2023-04-15T19:32:12.470Z,13.80
2023-04-15T19:36:01.523Z,17.50
2023-04-15T19:39:51.022Z,15.20
2023-04-15T19:43:40.738Z,14.70
2023-04-15T20:06:30.527Z,15.40
2023-04-15T20:10:19.503Z,15.50
2023-04-15T20:13:08.161Z,14.70
2023-04-15T20:21:20.511Z,13.50
2023-04-15T20:25:09.370Z,13.70
2023-04-15T20:28:59.054Z,16.00
2023-04-15T20:44:16.545Z,15.70
2023-04-15T20:48:04.638Z,14.80
2023-04-15T20:51:54.374Z,17.70
2023-04-15T20:55:45.391Z,19.50
2023-04-15T20:59:34.259Z,16.90
2023-04-15T21:07:38.003Z,16.50
2023-04-15T21:11:46.363Z,17.00
2023-04-15T21:15:35.889Z,17.20
2023-04-15T21:19:07.273Z,14.80
2023-04-15T21:38:11.634Z,15.10
2023-04-15T21:42:00.624Z,15.10
2023-04-15T21:46:22.892Z,13.40
2023-04-15T22:12:43.572Z,18.30
2023-04-15T22:16:32.576Z,18.40
2023-04-15T22:20:23.110Z,19.60
2023-04-15T22:39:34.934Z,19.40
2023-04-15T22:43:23.960Z,15.20
2023-04-15T22:47:14.436Z,19.60
2023-04-15T23:06:41.363Z,17.90
2023-04-15T23:10:31.283Z,17.40
2023-04-15T23:26:04.158Z,19.90
2023-04-15T23:29:53.218Z,18.70
2023-04-15T23:33:24.950Z,19.10
2023-04-15T23:37:14.025Z,17.60
2023-04-15T23:40:54.410Z,19.40
